Main page
METAR-TAF:

METAR-TAF

Airports :

Antonio B. Won Pat International Airport

Hagåtña, Guam, United States

latitude: 13-29N, longitude: 144-48E, elevation: 91 m

Current weather observation

The report was made 37 minutes ago, at 05:54 UTC
Wind 4 kt from the South/Southeast
Temperature 26°C
Humidity 94%
Pressure 1009 hPa
Visibility: 16.1 km
Overcast at a height of 10000 ft

METAR: PGUM 170554Z 16004KT 10SM OVC100 26/25 A2981 RMK AO2 SLP088 60007 T02560250 10283 20244 58014

Time: 16:31 (06:31 UTC)

Forecast

The report was made 59 minutes ago, at 05:32 UTC
Forecast valid from 17 at 06 UTC to 18 at 12 UTC
Wind 10 kt from the South/Southeast
Visibility: 10 km
Scattered clouds at a height of 1700 ft
Scattered clouds at a height of 5000 ft
Broken clouds at a height of 12000 ft
showers in vicinity

TAF: PGUM 170532Z 1706/1812 15010KT P6SM VCSH SCT017 SCT050 BKN120

Weather observations and forecasts of more than 4000 airports (METAR and TAF reports).

The available stations are represented by yellow and red dots on the map.

Hover mouse over dot to see the name of the station.

Then click to see weather observations and forecasts.

To change the map : click on the green buttons with a black cross to zoom in, on the green button with a dash to zoom out, or on the green arrows for adjacent maps.


METAR-TAF: